sensor_id;sensor_type;location;lat;lon;timestamp;pressure;altitude;pressure_sealevel;temperature;humidity
69153;BME280;56261;51.580;4.578;2023-05-12T00:02:21;101790.41;;;13.54;100.00
69153;BME280;56261;51.580;4.578;2023-05-12T00:04:47;101789.06;;;13.66;100.00
69153;BME280;56261;51.580;4.578;2023-05-12T00:07:12;101787.59;;;13.55;100.00
69153;BME280;56261;51.580;4.578;2023-05-12T00:09:38;101799.81;;;13.58;100.00
69153;BME280;56261;51.580;4.578;2023-05-12T00:12:05;101784.88;;;13.63;100.00
69153;BME280;56261;51.580;4.578;2023-05-12T00:14:31;101787.22;;;13.50;100.00
69153;BME280;56261;51.580;4.578;2023-05-12T00:16:56;101784.22;;;13.69;100.00
69153;BME280;56261;51.580;4.578;2023-05-12T00:19:21;101787.09;;;13.76;100.00
69153;BME280;56261;51.580;4.578;2023-05-12T00:21:47;101781.22;;;13.81;100.00
69153;BME280;56261;51.580;4.578;2023-05-12T00:24:13;101784.06;;;13.71;100.00
69153;BME280;56261;51.580;4.578;2023-05-12T00:26:38;101782.72;;;13.67;100.00
69153;BME280;56261;51.580;4.578;2023-05-12T00:29:03;101783.53;;;13.43;100.00
69153;BME280;56261;51.580;4.578;2023-05-12T00:31:29;101793.75;;;13.47;100.00
69153;BME280;56261;51.580;4.578;2023-05-12T00:33:58;101787.56;;;13.47;100.00
69153;BME280;56261;51.580;4.578;2023-05-12T00:36:23;101789.97;;;13.16;100.00
69153;BME280;56261;51.580;4.578;2023-05-12T00:38:48;101786.31;;;13.25;100.00
69153;BME280;56261;51.580;4.578;2023-05-12T00:41:14;101788.69;;;13.28;100.00
69153;BME280;56261;51.580;4.578;2023-05-12T00:43:40;101791.00;;;13.23;100.00
69153;BME280;56261;51.580;4.578;2023-05-12T00:46:05;101793.66;;;13.15;100.00
69153;BME280;56261;51.580;4.578;2023-05-12T00:48:32;101787.13;;;13.09;100.00
69153;BME280;56261;51.580;4.578;2023-05-12T00:50:58;101784.41;;;13.01;100.00
69153;BME280;56261;51.580;4.578;2023-05-12T00:53:24;101786.69;;;12.87;100.00
69153;BME280;56261;51.580;4.578;2023-05-12T00:55:50;101788.59;;;12.95;100.00
69153;BME280;56261;51.580;4.578;2023-05-12T00:58:15;101789.03;;;12.82;100.00
69153;BME280;56261;51.580;4.578;2023-05-12T01:00:41;101786.88;;;12.86;100.00
69153;BME280;56261;51.580;4.578;2023-05-12T01:03:06;101788.34;;;12.80;100.00
69153;BME280;56261;51.580;4.578;2023-05-12T01:05:41;101781.91;;;12.65;100.00
69153;BME280;56261;51.580;4.578;2023-05-12T01:08:11;101788.00;;;12.75;100.00
69153;BME280;56261;51.580;4.578;2023-05-12T01:10:42;101779.38;;;12.63;100.00
69153;BME280;56261;51.580;4.578;2023-05-12T01:13:08;101780.06;;;12.65;100.00
69153;BME280;56261;51.580;4.578;2023-05-12T01:15:34;101783.41;;;12.59;100.00
69153;BME280;56261;51.580;4.578;2023-05-12T01:18:01;101788.09;;;12.57;100.00
69153;BME280;56261;51.580;4.578;2023-05-12T01:20:29;101785.41;;;12.57;100.00
69153;BME280;56261;51.580;4.578;2023-05-12T01:22:57;101775.47;;;12.50;100.00
69153;BME280;56261;51.580;4.578;2023-05-12T01:25:22;101779.53;;;12.54;100.00
69153;BME280;56261;51.580;4.578;2023-05-12T01:27:49;101779.66;;;12.44;100.00
69153;BME280;56261;51.580;4.578;2023-05-12T01:30:16;101774.09;;;12.37;100.00
69153;BME280;56261;51.580;4.578;2023-05-12T01:32:42;101776.44;;;12.40;100.00
69153;BME280;56261;51.580;4.578;2023-05-12T01:35:08;101765.53;;;12.34;100.00
69153;BME280;56261;51.580;4.578;2023-05-12T01:37:34;101774.03;;;12.29;100.00
69153;BME280;56261;51.580;4.578;2023-05-12T01:39:59;101778.56;;;12.29;100.00
69153;BME280;56261;51.580;4.578;2023-05-12T01:42:24;101773.44;;;12.43;100.00
69153;BME280;56261;51.580;4.578;2023-05-12T01:44:50;101771.78;;;12.42;100.00
69153;BME280;56261;51.580;4.578;2023-05-12T01:47:15;101771.63;;;12.44;100.00
69153;BME280;56261;51.580;4.578;2023-05-12T01:49:41;101771.44;;;12.45;100.00
69153;BME280;56261;51.580;4.578;2023-05-12T01:52:07;101770.72;;;12.35;100.00
69153;BME280;56261;51.580;4.578;2023-05-12T01:54:32;101782.88;;;12.30;100.00
69153;BME280;56261;51.580;4.578;2023-05-12T01:56:57;101772.19;;;12.30;100.00
69153;BME280;56261;51.580;4.578;2023-05-12T01:59:23;101772.41;;;12.36;100.00
69153;BME280;56261;51.580;4.578;2023-05-12T02:01:48;101778.78;;;12.43;100.00
69153;BME280;56261;51.580;4.578;2023-05-12T02:04:14;101768.88;;;12.36;100.00
69153;BME280;56261;51.580;4.578;2023-05-12T02:06:39;101770.09;;;12.41;100.00
69153;BME280;56261;51.580;4.578;2023-05-12T02:09:04;101770.47;;;12.46;100.00
69153;BME280;56261;51.580;4.578;2023-05-12T02:11:30;101760.50;;;12.31;100.00
69153;BME280;56261;51.580;4.578;2023-05-12T02:13:55;101769.56;;;12.38;100.00
69153;BME280;56261;51.580;4.578;2023-05-12T02:16:21;101771.72;;;12.34;100.00
69153;BME280;56261;51.580;4.578;2023-05-12T02:18:47;101762.16;;;12.23;100.00
69153;BME280;56261;51.580;4.578;2023-05-12T02:21:12;101770.81;;;12.25;100.00
69153;BME280;56261;51.580;4.578;2023-05-12T02:23:38;101765.38;;;12.09;100.00
69153;BME280;56261;51.580;4.578;2023-05-12T02:26:03;101771.56;;;12.10;100.00
69153;BME280;56261;51.580;4.578;2023-05-12T02:28:28;101765.69;;;12.06;100.00
69153;BME280;56261;51.580;4.578;2023-05-12T02:30:54;101762.72;;;12.09;100.00
69153;BME280;56261;51.580;4.578;2023-05-12T02:33:20;101762.16;;;12.05;100.00
69153;BME280;56261;51.580;4.578;2023-05-12T02:35:47;101752.81;;;12.01;100.00
69153;BME280;56261;51.580;4.578;2023-05-12T02:38:12;101752.88;;;11.92;100.00
69153;BME280;56261;51.580;4.578;2023-05-12T02:40:38;101751.22;;;11.91;100.00
69153;BME280;56261;51.580;4.578;2023-05-12T02:43:03;101749.13;;;11.84;100.00
69153;BME280;56261;51.580;4.578;2023-05-12T02:45:28;101752.19;;;11.90;100.00
69153;BME280;56261;51.580;4.578;2023-05-12T02:47:54;101748.41;;;11.92;100.00
69153;BME280;56261;51.580;4.578;2023-05-12T02:50:19;101746.78;;;11.99;100.00
69153;BME280;56261;51.580;4.578;2023-05-12T02:52:48;101745.47;;;11.86;100.00
69153;BME280;56261;51.580;4.578;2023-05-12T02:55:14;101739.44;;;11.83;100.00
69153;BME280;56261;51.580;4.578;2023-05-12T02:57:39;101735.75;;;11.84;100.00
69153;BME280;56261;51.580;4.578;2023-05-12T03:00:05;101731.09;;;11.87;100.00
69153;BME280;56261;51.580;4.578;2023-05-12T03:02:37;101734.09;;;11.83;100.00
69153;BME280;56261;51.580;4.578;2023-05-12T03:05:03;101734.34;;;11.72;100.00
69153;BME280;56261;51.580;4.578;2023-05-12T03:07:29;101728.25;;;11.62;100.00
69153;BME280;56261;51.580;4.578;2023-05-12T03:09:54;101738.25;;;11.60;100.00
69153;BME280;56261;51.580;4.578;2023-05-12T03:12:20;101720.22;;;11.62;100.00
69153;BME280;56261;51.580;4.578;2023-05-12T03:14:45;101723.50;;;11.56;100.00
69153;BME280;56261;51.580;4.578;2023-05-12T03:17:11;101722.78;;;11.46;100.00
69153;BME280;56261;51.580;4.578;2023-05-12T03:19:36;101716.28;;;11.48;100.00
69153;BME280;56261;51.580;4.578;2023-05-12T03:22:02;101718.56;;;11.61;100.00
69153;BME280;56261;51.580;4.578;2023-05-12T03:24:28;101712.22;;;11.62;100.00
69153;BME280;56261;51.580;4.578;2023-05-12T03:26:54;101715.31;;;11.75;100.00
69153;BME280;56261;51.580;4.578;2023-05-12T03:29:20;101709.41;;;11.63;100.00
69153;BME280;56261;51.580;4.578;2023-05-12T03:31:45;101714.56;;;11.65;100.00
69153;BME280;56261;51.580;4.578;2023-05-12T03:34:11;101701.59;;;11.70;100.00
69153;BME280;56261;51.580;4.578;2023-05-12T03:36:36;101696.03;;;11.63;100.00
69153;BME280;56261;51.580;4.578;2023-05-12T03:39:02;101698.84;;;11.62;100.00
69153;BME280;56261;51.580;4.578;2023-05-12T03:41:27;101691.38;;;11.66;100.00
69153;BME280;56261;51.580;4.578;2023-05-12T03:43:53;101693.72;;;11.69;100.00
69153;BME280;56261;51.580;4.578;2023-05-12T03:46:18;101685.56;;;11.70;100.00
69153;BME280;56261;51.580;4.578;2023-05-12T03:48:44;101684.81;;;11.60;100.00
69153;BME280;56261;51.580;4.578;2023-05-12T03:51:09;101679.91;;;11.73;100.00
69153;BME280;56261;51.580;4.578;2023-05-12T03:53:34;101673.53;;;11.74;100.00
69153;BME280;56261;51.580;4.578;2023-05-12T03:56:04;101680.16;;;11.62;100.00
69153;BME280;56261;51.580;4.578;2023-05-12T03:58:29;101682.38;;;11.49;100.00
69153;BME280;56261;51.580;4.578;2023-05-12T04:00:58;101683.16;;;11.59;100.00
69153;BME280;56261;51.580;4.578;2023-05-12T04:03:28;101682.47;;;11.57;100.00
69153;BME280;56261;51.580;4.578;2023-05-12T04:06:01;101681.31;;;11.59;100.00
69153;BME280;56261;51.580;4.578;2023-05-12T04:08:27;101676.72;;;11.52;100.00
69153;BME280;56261;51.580;4.578;2023-05-12T04:10:54;101674.25;;;11.58;100.00
69153;BME280;56261;51.580;4.578;2023-05-12T04:13:20;101677.25;;;11.55;100.00
69153;BME280;56261;51.580;4.578;2023-05-12T04:15:46;101672.94;;;11.54;100.00
69153;BME280;56261;51.580;4.578;2023-05-12T04:18:12;101670.06;;;11.56;100.00
69153;BME280;56261;51.580;4.578;2023-05-12T04:20:37;101670.53;;;11.51;100.00
69153;BME280;56261;51.580;4.578;2023-05-12T04:23:02;101670.84;;;11.66;100.00
69153;BME280;56261;51.580;4.578;2023-05-12T04:25:28;101669.09;;;11.57;100.00
69153;BME280;56261;51.580;4.578;2023-05-12T04:27:53;101665.50;;;11.66;100.00
69153;BME280;56261;51.580;4.578;2023-05-12T04:30:18;101666.22;;;11.76;100.00
69153;BME280;56261;51.580;4.578;2023-05-12T04:32:44;101666.69;;;11.72;100.00
69153;BME280;56261;51.580;4.578;2023-05-12T04:35:09;101661.81;;;11.67;100.00
69153;BME280;56261;51.580;4.578;2023-05-12T04:37:35;101660.16;;;11.66;100.00
69153;BME280;56261;51.580;4.578;2023-05-12T04:40:00;101663.44;;;11.60;100.00
69153;BME280;56261;51.580;4.578;2023-05-12T04:42:26;101669.69;;;11.69;100.00
69153;BME280;56261;51.580;4.578;2023-05-12T04:44:51;101662.47;;;11.61;100.00
69153;BME280;56261;51.580;4.578;2023-05-12T04:47:16;101658.91;;;11.60;100.00
69153;BME280;56261;51.580;4.578;2023-05-12T04:49:42;101673.75;;;11.55;100.00
69153;BME280;56261;51.580;4.578;2023-05-12T04:52:07;101663.75;;;11.57;100.00
69153;BME280;56261;51.580;4.578;2023-05-12T04:54:33;101667.41;;;11.56;100.00
69153;BME280;56261;51.580;4.578;2023-05-12T04:56:58;101676.25;;;11.56;100.00
69153;BME280;56261;51.580;4.578;2023-05-12T04:59:23;101671.44;;;11.60;100.00
69153;BME280;56261;51.580;4.578;2023-05-12T05:01:49;101674.19;;;11.68;100.00
69153;BME280;56261;51.580;4.578;2023-05-12T05:04:15;101686.41;;;11.71;100.00
69153;BME280;56261;51.580;4.578;2023-05-12T05:06:40;101670.50;;;11.69;100.00
69153;BME280;56261;51.580;4.578;2023-05-12T05:09:06;101681.88;;;11.71;100.00
69153;BME280;56261;51.580;4.578;2023-05-12T05:11:31;101681.53;;;11.66;100.00
69153;BME280;56261;51.580;4.578;2023-05-12T05:13:57;101681.38;;;11.68;100.00
69153;BME280;56261;51.580;4.578;2023-05-12T05:16:22;101676.03;;;11.68;100.00
69153;BME280;56261;51.580;4.578;2023-05-12T05:18:48;101677.91;;;11.75;100.00
69153;BME280;56261;51.580;4.578;2023-05-12T05:21:14;101690.13;;;11.78;100.00
69153;BME280;56261;51.580;4.578;2023-05-12T05:23:39;101682.25;;;11.76;100.00
69153;BME280;56261;51.580;4.578;2023-05-12T05:26:06;101690.47;;;11.83;100.00
69153;BME280;56261;51.580;4.578;2023-05-12T05:28:31;101685.38;;;11.90;100.00
69153;BME280;56261;51.580;4.578;2023-05-12T05:30:56;101681.03;;;11.89;100.00
69153;BME280;56261;51.580;4.578;2023-05-12T05:33:22;101682.63;;;11.81;100.00
69153;BME280;56261;51.580;4.578;2023-05-12T05:35:48;101685.75;;;11.95;100.00
69153;BME280;56261;51.580;4.578;2023-05-12T05:38:13;101686.06;;;11.92;100.00
69153;BME280;56261;51.580;4.578;2023-05-12T05:40:38;101681.78;;;11.99;100.00
69153;BME280;56261;51.580;4.578;2023-05-12T05:43:04;101676.72;;;11.96;100.00
69153;BME280;56261;51.580;4.578;2023-05-12T05:45:31;101684.81;;;12.04;100.00
69153;BME280;56261;51.580;4.578;2023-05-12T05:47:56;101683.28;;;12.01;100.00
69153;BME280;56261;51.580;4.578;2023-05-12T05:50:21;101684.69;;;12.14;100.00
69153;BME280;56261;51.580;4.578;2023-05-12T05:52:47;101697.75;;;12.17;100.00
69153;BME280;56261;51.580;4.578;2023-05-12T05:55:12;101691.53;;;12.16;100.00
69153;BME280;56261;51.580;4.578;2023-05-12T05:57:38;101692.59;;;12.23;100.00
69153;BME280;56261;51.580;4.578;2023-05-12T06:00:04;101693.94;;;12.28;100.00
69153;BME280;56261;51.580;4.578;2023-05-12T06:02:30;101695.72;;;12.19;100.00
69153;BME280;56261;51.580;4.578;2023-05-12T06:04:57;101695.63;;;12.29;100.00
69153;BME280;56261;51.580;4.578;2023-05-12T06:07:24;101683.41;;;12.26;100.00
69153;BME280;56261;51.580;4.578;2023-05-12T06:09:52;101693.16;;;12.35;100.00
69153;BME280;56261;51.580;4.578;2023-05-12T06:12:17;101691.94;;;12.30;100.00
69153;BME280;56261;51.580;4.578;2023-05-12T06:14:43;101699.47;;;12.34;100.00
69153;BME280;56261;51.580;4.578;2023-05-12T06:17:08;101690.69;;;12.42;100.00
69153;BME280;56261;51.580;4.578;2023-05-12T06:19:33;101692.53;;;12.50;100.00
69153;BME280;56261;51.580;4.578;2023-05-12T06:21:59;101691.16;;;12.45;100.00
69153;BME280;56261;51.580;4.578;2023-05-12T06:24:24;101702.25;;;12.51;100.00
69153;BME280;56261;51.580;4.578;2023-05-12T06:26:50;101705.13;;;12.57;100.00
69153;BME280;56261;51.580;4.578;2023-05-12T06:29:15;101706.59;;;12.52;100.00
69153;BME280;56261;51.580;4.578;2023-05-12T06:31:41;101709.31;;;12.60;100.00
69153;BME280;56261;51.580;4.578;2023-05-12T06:34:06;101685.72;;;12.55;100.00
69153;BME280;56261;51.580;4.578;2023-05-12T06:36:31;101699.78;;;12.57;100.00
69153;BME280;56261;51.580;4.578;2023-05-12T06:38:57;101712.19;;;12.75;100.00
69153;BME280;56261;51.580;4.578;2023-05-12T06:41:23;101708.16;;;12.62;100.00
69153;BME280;56261;51.580;4.578;2023-05-12T06:43:49;101706.47;;;12.61;100.00
69153;BME280;56261;51.580;4.578;2023-05-12T06:46:15;101708.88;;;12.73;100.00
69153;BME280;56261;51.580;4.578;2023-05-12T06:48:40;101715.03;;;12.73;100.00
69153;BME280;56261;51.580;4.578;2023-05-12T06:51:06;101716.31;;;12.61;100.00
69153;BME280;56261;51.580;4.578;2023-05-12T06:53:31;101711.84;;;12.70;100.00
69153;BME280;56261;51.580;4.578;2023-05-12T06:55:57;101706.28;;;12.55;100.00
69153;BME280;56261;51.580;4.578;2023-05-12T06:58:23;101718.50;;;12.57;100.00
69153;BME280;56261;51.580;4.578;2023-05-12T07:00:48;101719.56;;;12.73;100.00
69153;BME280;56261;51.580;4.578;2023-05-12T07:03:14;101717.72;;;12.73;100.00
69153;BME280;56261;51.580;4.578;2023-05-12T07:05:39;101722.63;;;12.86;100.00
69153;BME280;56261;51.580;4.578;2023-05-12T07:08:05;101726.63;;;12.90;100.00
69153;BME280;56261;51.580;4.578;2023-05-12T07:10:30;101721.78;;;12.94;100.00
69153;BME280;56261;51.580;4.578;2023-05-12T07:12:57;101721.63;;;13.03;100.00
69153;BME280;56261;51.580;4.578;2023-05-12T07:15:22;101729.72;;;13.20;100.00
69153;BME280;56261;51.580;4.578;2023-05-12T07:17:48;101726.22;;;13.27;100.00
69153;BME280;56261;51.580;4.578;2023-05-12T07:20:13;101724.56;;;13.35;100.00
69153;BME280;56261;51.580;4.578;2023-05-12T07:22:39;101727.59;;;13.32;100.00
69153;BME280;56261;51.580;4.578;2023-05-12T07:25:05;101735.81;;;13.38;100.00
69153;BME280;56261;51.580;4.578;2023-05-12T07:27:31;101720.41;;;13.48;100.00
69153;BME280;56261;51.580;4.578;2023-05-12T07:29:57;101730.94;;;13.58;100.00
69153;BME280;56261;51.580;4.578;2023-05-12T07:32:22;101722.91;;;13.75;100.00
69153;BME280;56261;51.580;4.578;2023-05-12T07:34:47;101727.72;;;14.04;100.00
69153;BME280;56261;51.580;4.578;2023-05-12T07:37:13;101728.88;;;14.09;100.00
69153;BME280;56261;51.580;4.578;2023-05-12T07:39:38;101728.06;;;14.09;100.00
69153;BME280;56261;51.580;4.578;2023-05-12T07:42:04;101735.91;;;14.10;100.00
69153;BME280;56261;51.580;4.578;2023-05-12T07:44:29;101737.25;;;14.06;100.00
69153;BME280;56261;51.580;4.578;2023-05-12T07:46:57;101737.25;;;14.06;100.00
69153;BME280;56261;51.580;4.578;2023-05-12T07:49:22;101738.13;;;13.99;100.00
69153;BME280;56261;51.580;4.578;2023-05-12T07:51:47;101753.69;;;14.11;100.00
69153;BME280;56261;51.580;4.578;2023-05-12T07:54:13;101748.66;;;14.08;100.00
69153;BME280;56261;51.580;4.578;2023-05-12T07:56:38;101739.47;;;14.03;100.00
69153;BME280;56261;51.580;4.578;2023-05-12T07:59:04;101753.88;;;14.10;100.00
69153;BME280;56261;51.580;4.578;2023-05-12T08:01:30;101744.25;;;14.32;100.00
69153;BME280;56261;51.580;4.578;2023-05-12T08:03:55;101743.97;;;14.19;100.00
69153;BME280;56261;51.580;4.578;2023-05-12T08:06:21;101746.94;;;14.32;100.00
69153;BME280;56261;51.580;4.578;2023-05-12T08:08:46;101733.69;;;14.30;100.00
69153;BME280;56261;51.580;4.578;2023-05-12T08:11:12;101751.13;;;14.35;100.00
69153;BME280;56261;51.580;4.578;2023-05-12T08:13:37;101746.94;;;14.40;100.00
69153;BME280;56261;51.580;4.578;2023-05-12T08:16:03;101740.84;;;14.46;100.00
69153;BME280;56261;51.580;4.578;2023-05-12T08:18:28;101744.50;;;14.70;100.00
69153;BME280;56261;51.580;4.578;2023-05-12T08:20:54;101745.03;;;14.97;100.00
69153;BME280;56261;51.580;4.578;2023-05-12T08:23:20;101748.91;;;15.25;100.00
69153;BME280;56261;51.580;4.578;2023-05-12T08:25:45;101756.34;;;15.15;100.00
69153;BME280;56261;51.580;4.578;2023-05-12T08:28:12;101754.69;;;15.37;100.00
69153;BME280;56261;51.580;4.578;2023-05-12T08:30:38;101761.63;;;15.54;100.00
69153;BME280;56261;51.580;4.578;2023-05-12T08:33:04;101765.91;;;15.64;100.00
69153;BME280;56261;51.580;4.578;2023-05-12T08:35:29;101767.00;;;15.77;100.00
69153;BME280;56261;51.580;4.578;2023-05-12T08:37:55;101764.91;;;15.88;100.00
69153;BME280;56261;51.580;4.578;2023-05-12T08:40:22;101767.25;;;16.21;100.00
69153;BME280;56261;51.580;4.578;2023-05-12T08:43:24;101767.78;;;15.86;100.00
69153;BME280;56261;51.580;4.578;2023-05-12T08:45:55;101779.38;;;15.87;100.00
69153;BME280;56261;51.580;4.578;2023-05-12T08:48:25;101780.84;;;15.89;100.00
69153;BME280;56261;51.580;4.578;2023-05-12T08:50:53;101778.19;;;16.04;100.00
69153;BME280;56261;51.580;4.578;2023-05-12T08:53:20;101779.19;;;16.41;100.00
69153;BME280;56261;51.580;4.578;2023-05-12T08:55:47;101771.41;;;17.12;100.00
69153;BME280;56261;51.580;4.578;2023-05-12T08:58:14;101769.25;;;17.66;100.00
69153;BME280;56261;51.580;4.578;2023-05-12T09:00:40;101764.22;;;18.05;100.00
69153;BME280;56261;51.580;4.578;2023-05-12T09:03:06;101761.09;;;18.02;100.00
69153;BME280;56261;51.580;4.578;2023-05-12T09:05:33;101778.91;;;17.53;100.00
69153;BME280;56261;51.580;4.578;2023-05-12T09:07:59;101782.63;;;16.79;100.00
69153;BME280;56261;51.580;4.578;2023-05-12T09:10:26;101778.06;;;16.50;100.00
69153;BME280;56261;51.580;4.578;2023-05-12T09:12:54;101792.06;;;16.60;100.00
69153;BME280;56261;51.580;4.578;2023-05-12T09:15:26;101785.50;;;17.29;100.00
69153;BME280;56261;51.580;4.578;2023-05-12T09:17:54;101773.53;;;18.03;100.00
69153;BME280;56261;51.580;4.578;2023-05-12T09:20:19;101775.50;;;18.51;100.00
69153;BME280;56261;51.580;4.578;2023-05-12T09:22:45;101776.69;;;18.76;100.00
69153;BME280;56261;51.580;4.578;2023-05-12T09:25:15;101784.09;;;18.96;100.00
69153;BME280;56261;51.580;4.578;2023-05-12T09:27:42;101787.09;;;19.27;100.00
69153;BME280;56261;51.580;4.578;2023-05-12T09:30:08;101796.44;;;18.35;100.00
69153;BME280;56261;51.580;4.578;2023-05-12T09:32:34;101794.13;;;18.04;100.00
69153;BME280;56261;51.580;4.578;2023-05-12T09:35:09;101792.03;;;18.06;100.00
69153;BME280;56261;51.580;4.578;2023-05-12T09:37:36;101795.97;;;18.03;100.00
69153;BME280;56261;51.580;4.578;2023-05-12T09:40:03;101793.88;;;18.27;100.00
69153;BME280;56261;51.580;4.578;2023-05-12T09:42:30;101792.72;;;18.15;100.00
69153;BME280;56261;51.580;4.578;2023-05-12T09:45:04;101790.84;;;18.09;100.00
69153;BME280;56261;51.580;4.578;2023-05-12T09:47:37;101787.53;;;18.13;100.00
69153;BME280;56261;51.580;4.578;2023-05-12T09:50:04;101793.72;;;18.35;100.00
69153;BME280;56261;51.580;4.578;2023-05-12T09:52:35;101793.09;;;18.05;100.00
69153;BME280;56261;51.580;4.578;2023-05-12T09:55:08;101786.59;;;18.28;100.00
69153;BME280;56261;51.580;4.578;2023-05-12T09:57:40;101784.97;;;18.33;100.00
69153;BME280;56261;51.580;4.578;2023-05-12T10:00:08;101792.94;;;18.48;100.00
69153;BME280;56261;51.580;4.578;2023-05-12T10:02:34;101792.91;;;18.07;100.00
69153;BME280;56261;51.580;4.578;2023-05-12T10:05:04;101796.88;;;18.11;100.00
69153;BME280;56261;51.580;4.578;2023-05-12T10:07:31;101785.22;;;18.10;100.00
69153;BME280;56261;51.580;4.578;2023-05-12T10:10:00;101787.31;;;18.43;100.00
69153;BME280;56261;51.580;4.578;2023-05-12T10:12:27;101786.84;;;19.09;100.00
69153;BME280;56261;51.580;4.578;2023-05-12T10:14:52;101784.97;;;19.16;100.00
69153;BME280;56261;51.580;4.578;2023-05-12T10:17:19;101785.88;;;19.37;100.00
69153;BME280;56261;51.580;4.578;2023-05-12T10:19:46;101786.47;;;19.25;100.00
69153;BME280;56261;51.580;4.578;2023-05-12T10:22:14;101783.53;;;19.20;100.00
69153;BME280;56261;51.580;4.578;2023-05-12T10:24:40;101784.63;;;19.46;100.00
69153;BME280;56261;51.580;4.578;2023-05-12T10:27:06;101787.09;;;19.27;100.00
69153;BME280;56261;51.580;4.578;2023-05-12T10:29:32;101782.50;;;19.28;100.00
69153;BME280;56261;51.580;4.578;2023-05-12T10:31:59;101785.03;;;19.36;100.00
69153;BME280;56261;51.580;4.578;2023-05-12T10:34:35;101782.34;;;19.36;100.00
69153;BME280;56261;51.580;4.578;2023-05-12T10:37:03;101786.91;;;19.29;100.00
69153;BME280;56261;51.580;4.578;2023-05-12T10:39:32;101781.16;;;18.56;100.00
69153;BME280;56261;51.580;4.578;2023-05-12T10:42:08;101791.19;;;18.68;100.00
69153;BME280;56261;51.580;4.578;2023-05-12T10:44:35;101783.03;;;18.97;100.00
69153;BME280;56261;51.580;4.578;2023-05-12T10:47:01;101786.78;;;18.61;100.00
69153;BME280;56261;51.580;4.578;2023-05-12T10:49:39;101796.31;;;18.57;100.00
69153;BME280;56261;51.580;4.578;2023-05-12T10:52:06;101785.44;;;18.43;100.00
69153;BME280;56261;51.580;4.578;2023-05-12T10:54:42;101790.41;;;19.16;100.00
69153;BME280;56261;51.580;4.578;2023-05-12T10:57:12;101794.81;;;19.37;100.00
69153;BME280;56261;51.580;4.578;2023-05-12T11:00:10;101795.50;;;18.91;100.00
69153;BME280;56261;51.580;4.578;2023-05-12T11:02:48;101792.41;;;19.01;100.00
69153;BME280;56261;51.580;4.578;2023-05-12T11:05:13;101781.56;;;18.87;100.00
69153;BME280;56261;51.580;4.578;2023-05-12T11:07:39;101797.81;;;18.94;100.00
69153;BME280;56261;51.580;4.578;2023-05-12T11:10:04;101796.31;;;18.85;100.00
69153;BME280;56261;51.580;4.578;2023-05-12T11:12:31;101797.63;;;18.67;100.00
69153;BME280;56261;51.580;4.578;2023-05-12T11:15:01;101800.88;;;18.84;100.00
69153;BME280;56261;51.580;4.578;2023-05-12T11:17:27;101802.31;;;18.80;100.00
69153;BME280;56261;51.580;4.578;2023-05-12T11:19:53;101804.59;;;18.83;100.00
69153;BME280;56261;51.580;4.578;2023-05-12T11:22:21;101807.13;;;18.57;100.00
69153;BME280;56261;51.580;4.578;2023-05-12T11:24:48;101787.28;;;19.19;100.00
69153;BME280;56261;51.580;4.578;2023-05-12T11:27:16;101807.03;;;19.20;100.00
69153;BME280;56261;51.580;4.578;2023-05-12T11:29:42;101802.53;;;19.40;100.00
69153;BME280;56261;51.580;4.578;2023-05-12T11:32:10;101812.25;;;19.21;100.00
69153;BME280;56261;51.580;4.578;2023-05-12T11:34:39;101803.28;;;19.14;100.00
69153;BME280;56261;51.580;4.578;2023-05-12T11:37:04;101802.59;;;18.99;100.00
69153;BME280;56261;51.580;4.578;2023-05-12T11:39:31;101808.13;;;19.39;100.00
69153;BME280;56261;51.580;4.578;2023-05-12T11:42:04;101805.53;;;19.85;100.00
69153;BME280;56261;51.580;4.578;2023-05-12T11:44:31;101811.34;;;19.89;100.00
69153;BME280;56261;51.580;4.578;2023-05-12T11:47:01;101810.22;;;19.43;100.00
69153;BME280;56261;51.580;4.578;2023-05-12T11:49:28;101814.50;;;19.04;100.00
69153;BME280;56261;51.580;4.578;2023-05-12T11:51:55;101827.38;;;19.02;100.00
69153;BME280;56261;51.580;4.578;2023-05-12T11:54:21;101815.03;;;18.93;100.00
69153;BME280;56261;51.580;4.578;2023-05-12T11:56:48;101812.72;;;19.32;100.00
69153;BME280;56261;51.580;4.578;2023-05-12T11:59:31;101813.44;;;19.74;100.00
69153;BME280;56261;51.580;4.578;2023-05-12T12:01:58;101814.22;;;19.54;100.00
69153;BME280;56261;51.580;4.578;2023-05-12T12:04:34;101824.44;;;19.65;100.00
69153;BME280;56261;51.580;4.578;2023-05-12T12:06:59;101826.69;;;19.55;100.00
69153;BME280;56261;51.580;4.578;2023-05-12T12:11:58;101839.56;;;18.85;100.00
69153;BME280;56261;51.580;4.578;2023-05-12T12:14:24;101837.16;;;18.75;100.00
69153;BME280;56261;51.580;4.578;2023-05-12T12:16:49;101852.34;;;18.41;100.00
69153;BME280;56261;51.580;4.578;2023-05-12T12:19:14;101850.53;;;18.20;100.00
69153;BME280;56261;51.580;4.578;2023-05-12T12:21:40;101856.88;;;18.13;100.00
69153;BME280;56261;51.580;4.578;2023-05-12T12:24:06;101860.22;;;18.15;100.00
69153;BME280;56261;51.580;4.578;2023-05-12T12:26:32;101860.63;;;18.12;100.00
69153;BME280;56261;51.580;4.578;2023-05-12T12:28:57;101866.34;;;18.23;100.00
69153;BME280;56261;51.580;4.578;2023-05-12T12:31:23;101870.78;;;18.31;100.00
69153;BME280;56261;51.580;4.578;2023-05-12T12:33:48;101853.53;;;18.32;100.00
69153;BME280;56261;51.580;4.578;2023-05-12T12:36:13;101868.53;;;18.41;100.00
69153;BME280;56261;51.580;4.578;2023-05-12T12:38:39;101867.91;;;18.67;100.00
69153;BME280;56261;51.580;4.578;2023-05-12T12:41:05;101852.69;;;18.60;100.00